sensor_id;sensor_type;location;lat;lon;timestamp;temperature;humidity
6252;DHT22;3159;52.414;9.784;2023-06-22T00:00:52;23.40;99.90
6252;DHT22;3159;52.414;9.784;2023-06-22T00:03:20;23.40;99.90
6252;DHT22;3159;52.414;9.784;2023-06-22T00:05:47;23.30;99.90
6252;DHT22;3159;52.414;9.784;2023-06-22T00:08:14;23.30;99.90
6252;DHT22;3159;52.414;9.784;2023-06-22T00:10:42;23.30;99.90
6252;DHT22;3159;52.414;9.784;2023-06-22T00:13:09;23.30;99.90
6252;DHT22;3159;52.414;9.784;2023-06-22T00:15:39;23.20;99.90
6252;DHT22;3159;52.414;9.784;2023-06-22T00:18:06;23.20;99.90
6252;DHT22;3159;52.414;9.784;2023-06-22T00:20:33;23.20;99.90
6252;DHT22;3159;52.414;9.784;2023-06-22T00:23:03;23.20;99.90
6252;DHT22;3159;52.414;9.784;2023-06-22T00:25:33;23.20;99.90
6252;DHT22;3159;52.414;9.784;2023-06-22T00:28:00;23.20;99.90
6252;DHT22;3159;52.414;9.784;2023-06-22T00:30:27;23.10;99.90
6252;DHT22;3159;52.414;9.784;2023-06-22T00:32:55;23.00;99.90
6252;DHT22;3159;52.414;9.784;2023-06-22T00:35:22;23.00;99.90
6252;DHT22;3159;52.414;9.784;2023-06-22T00:37:54;23.00;99.90
6252;DHT22;3159;52.414;9.784;2023-06-22T00:40:26;23.00;99.90
6252;DHT22;3159;52.414;9.784;2023-06-22T00:42:53;23.00;99.90
6252;DHT22;3159;52.414;9.784;2023-06-22T00:45:20;23.00;99.90
6252;DHT22;3159;52.414;9.784;2023-06-22T00:47:48;23.00;99.90
6252;DHT22;3159;52.414;9.784;2023-06-22T00:50:20;23.00;99.90
6252;DHT22;3159;52.414;9.784;2023-06-22T00:52:49;22.90;99.90
6252;DHT22;3159;52.414;9.784;2023-06-22T00:55:18;22.80;99.90
6252;DHT22;3159;52.414;9.784;2023-06-22T00:57:45;22.80;99.90
6252;DHT22;3159;52.414;9.784;2023-06-22T01:00:13;22.80;99.90
6252;DHT22;3159;52.414;9.784;2023-06-22T01:02:42;22.80;99.90
6252;DHT22;3159;52.414;9.784;2023-06-22T01:05:11;22.70;99.90
6252;DHT22;3159;52.414;9.784;2023-06-22T01:07:46;22.60;99.90
6252;DHT22;3159;52.414;9.784;2023-06-22T01:10:23;22.60;99.90
6252;DHT22;3159;52.414;9.784;2023-06-22T01:12:53;22.40;99.90
6252;DHT22;3159;52.414;9.784;2023-06-22T01:15:33;22.40;99.90
6252;DHT22;3159;52.414;9.784;2023-06-22T01:18:00;22.40;99.90
6252;DHT22;3159;52.414;9.784;2023-06-22T01:20:31;22.30;99.90
6252;DHT22;3159;52.414;9.784;2023-06-22T01:23:09;22.50;99.90
6252;DHT22;3159;52.414;9.784;2023-06-22T01:25:45;22.60;99.90
6252;DHT22;3159;52.414;9.784;2023-06-22T01:30:53;22.50;99.90
6252;DHT22;3159;52.414;9.784;2023-06-22T01:33:29;22.50;99.90
6252;DHT22;3159;52.414;9.784;2023-06-22T01:35:58;22.50;99.90
6252;DHT22;3159;52.414;9.784;2023-06-22T01:38:26;22.50;99.90
6252;DHT22;3159;52.414;9.784;2023-06-22T01:40:55;22.40;99.90
6252;DHT22;3159;52.414;9.784;2023-06-22T01:43:24;22.50;99.90
6252;DHT22;3159;52.414;9.784;2023-06-22T01:45:54;22.40;99.90
6252;DHT22;3159;52.414;9.784;2023-06-22T01:48:21;22.40;99.90
6252;DHT22;3159;52.414;9.784;2023-06-22T01:50:49;22.40;99.90
6252;DHT22;3159;52.414;9.784;2023-06-22T01:53:16;22.40;99.90
6252;DHT22;3159;52.414;9.784;2023-06-22T01:55:42;22.30;99.90
6252;DHT22;3159;52.414;9.784;2023-06-22T01:58:09;22.30;99.90
6252;DHT22;3159;52.414;9.784;2023-06-22T02:00:37;22.40;99.90
6252;DHT22;3159;52.414;9.784;2023-06-22T02:03:11;22.30;99.90
6252;DHT22;3159;52.414;9.784;2023-06-22T02:05:46;22.30;99.90
6252;DHT22;3159;52.414;9.784;2023-06-22T02:08:19;22.20;99.90
6252;DHT22;3159;52.414;9.784;2023-06-22T02:10:47;22.20;99.90
6252;DHT22;3159;52.414;9.784;2023-06-22T02:13:15;22.30;99.90
6252;DHT22;3159;52.414;9.784;2023-06-22T02:15:43;22.30;99.90
6252;DHT22;3159;52.414;9.784;2023-06-22T02:18:12;22.30;99.90
6252;DHT22;3159;52.414;9.784;2023-06-22T02:20:40;22.30;99.90
6252;DHT22;3159;52.414;9.784;2023-06-22T02:23:07;22.20;99.90
6252;DHT22;3159;52.414;9.784;2023-06-22T02:25:34;22.10;99.90
6252;DHT22;3159;52.414;9.784;2023-06-22T02:28:02;22.10;99.90
6252;DHT22;3159;52.414;9.784;2023-06-22T02:30:29;22.00;99.90
6252;DHT22;3159;52.414;9.784;2023-06-22T02:32:55;22.00;99.90
6252;DHT22;3159;52.414;9.784;2023-06-22T02:35:27;22.00;99.90
6252;DHT22;3159;52.414;9.784;2023-06-22T02:37:57;21.90;99.90
6252;DHT22;3159;52.414;9.784;2023-06-22T02:40:24;22.00;99.90
6252;DHT22;3159;52.414;9.784;2023-06-22T02:42:51;22.00;99.90
6252;DHT22;3159;52.414;9.784;2023-06-22T02:45:18;22.00;99.90
6252;DHT22;3159;52.414;9.784;2023-06-22T02:47:45;22.10;99.90
6252;DHT22;3159;52.414;9.784;2023-06-22T02:50:13;22.10;99.90
6252;DHT22;3159;52.414;9.784;2023-06-22T02:52:41;22.10;99.90
6252;DHT22;3159;52.414;9.784;2023-06-22T02:55:08;22.10;99.90
6252;DHT22;3159;52.414;9.784;2023-06-22T02:57:35;22.00;99.90
6252;DHT22;3159;52.414;9.784;2023-06-22T03:00:03;22.00;99.90
6252;DHT22;3159;52.414;9.784;2023-06-22T03:02:42;22.00;99.90
6252;DHT22;3159;52.414;9.784;2023-06-22T03:05:09;21.90;99.90
6252;DHT22;3159;52.414;9.784;2023-06-22T03:07:40;22.00;99.90
6252;DHT22;3159;52.414;9.784;2023-06-22T03:10:08;22.00;99.90
6252;DHT22;3159;52.414;9.784;2023-06-22T03:12:36;21.90;99.90
6252;DHT22;3159;52.414;9.784;2023-06-22T03:15:03;22.00;99.90
6252;DHT22;3159;52.414;9.784;2023-06-22T03:17:30;21.90;99.90
6252;DHT22;3159;52.414;9.784;2023-06-22T03:19:57;21.80;99.90
6252;DHT22;3159;52.414;9.784;2023-06-22T03:22:24;21.70;99.90
6252;DHT22;3159;52.414;9.784;2023-06-22T03:24:52;21.80;99.90
6252;DHT22;3159;52.414;9.784;2023-06-22T03:27:19;21.90;99.90
6252;DHT22;3159;52.414;9.784;2023-06-22T03:29:46;21.90;99.90
6252;DHT22;3159;52.414;9.784;2023-06-22T03:32:13;21.90;99.90
6252;DHT22;3159;52.414;9.784;2023-06-22T03:34:39;21.90;99.90
6252;DHT22;3159;52.414;9.784;2023-06-22T03:37:12;21.90;99.90
6252;DHT22;3159;52.414;9.784;2023-06-22T03:39:39;22.00;99.90
6252;DHT22;3159;52.414;9.784;2023-06-22T03:42:08;22.00;99.90
6252;DHT22;3159;52.414;9.784;2023-06-22T03:44:35;22.00;99.90
6252;DHT22;3159;52.414;9.784;2023-06-22T03:47:02;21.80;99.90
6252;DHT22;3159;52.414;9.784;2023-06-22T03:49:29;21.90;99.90
6252;DHT22;3159;52.414;9.784;2023-06-22T03:51:56;21.80;99.90
6252;DHT22;3159;52.414;9.784;2023-06-22T03:54:22;21.70;99.90
6252;DHT22;3159;52.414;9.784;2023-06-22T03:56:49;21.70;99.90
6252;DHT22;3159;52.414;9.784;2023-06-22T03:59:17;21.60;99.90
6252;DHT22;3159;52.414;9.784;2023-06-22T04:01:44;21.60;99.90
6252;DHT22;3159;52.414;9.784;2023-06-22T04:04:12;21.70;99.90
6252;DHT22;3159;52.414;9.784;2023-06-22T04:06:39;21.70;99.90
6252;DHT22;3159;52.414;9.784;2023-06-22T04:09:06;21.80;99.90
6252;DHT22;3159;52.414;9.784;2023-06-22T04:11:33;21.80;99.90
6252;DHT22;3159;52.414;9.784;2023-06-22T04:13:59;21.70;99.90
6252;DHT22;3159;52.414;9.784;2023-06-22T04:16:28;21.80;99.90
6252;DHT22;3159;52.414;9.784;2023-06-22T04:18:55;21.80;99.90
6252;DHT22;3159;52.414;9.784;2023-06-22T04:21:21;21.80;99.90
6252;DHT22;3159;52.414;9.784;2023-06-22T04:23:48;21.90;99.90
6252;DHT22;3159;52.414;9.784;2023-06-22T04:26:15;22.00;99.90
6252;DHT22;3159;52.414;9.784;2023-06-22T04:28:42;22.00;99.90
6252;DHT22;3159;52.414;9.784;2023-06-22T04:31:09;22.10;99.90
6252;DHT22;3159;52.414;9.784;2023-06-22T04:33:37;21.90;99.90
6252;DHT22;3159;52.414;9.784;2023-06-22T04:36:06;22.10;99.90
6252;DHT22;3159;52.414;9.784;2023-06-22T04:38:33;22.10;99.90
6252;DHT22;3159;52.414;9.784;2023-06-22T04:40:59;22.00;99.90
6252;DHT22;3159;52.414;9.784;2023-06-22T04:43:28;22.00;99.90
6252;DHT22;3159;52.414;9.784;2023-06-22T04:45:56;22.00;99.90
6252;DHT22;3159;52.414;9.784;2023-06-22T04:48:29;22.20;99.90
6252;DHT22;3159;52.414;9.784;2023-06-22T04:50:59;22.10;99.90
6252;DHT22;3159;52.414;9.784;2023-06-22T04:53:30;22.10;99.90
6252;DHT22;3159;52.414;9.784;2023-06-22T04:55:57;22.20;99.90
6252;DHT22;3159;52.414;9.784;2023-06-22T04:58:24;22.10;99.90
6252;DHT22;3159;52.414;9.784;2023-06-22T05:00:52;22.00;99.90
6252;DHT22;3159;52.414;9.784;2023-06-22T05:03:24;21.70;99.90
6252;DHT22;3159;52.414;9.784;2023-06-22T05:05:52;21.60;99.90
6252;DHT22;3159;52.414;9.784;2023-06-22T05:08:20;21.80;99.90
6252;DHT22;3159;52.414;9.784;2023-06-22T05:10:52;21.90;99.90
6252;DHT22;3159;52.414;9.784;2023-06-22T05:13:18;21.80;99.90
6252;DHT22;3159;52.414;9.784;2023-06-22T05:15:47;21.90;99.90
6252;DHT22;3159;52.414;9.784;2023-06-22T05:18:14;22.00;99.90
6252;DHT22;3159;52.414;9.784;2023-06-22T05:20:40;22.20;99.90
6252;DHT22;3159;52.414;9.784;2023-06-22T05:23:07;22.20;99.90
6252;DHT22;3159;52.414;9.784;2023-06-22T05:25:36;22.30;99.90
6252;DHT22;3159;52.414;9.784;2023-06-22T05:28:03;22.40;99.90
6252;DHT22;3159;52.414;9.784;2023-06-22T05:30:37;22.40;99.90
6252;DHT22;3159;52.414;9.784;2023-06-22T05:33:04;22.40;99.90
6252;DHT22;3159;52.414;9.784;2023-06-22T05:35:31;22.40;99.90
6252;DHT22;3159;52.414;9.784;2023-06-22T05:37:58;22.40;99.90
6252;DHT22;3159;52.414;9.784;2023-06-22T05:40:25;22.40;99.90
6252;DHT22;3159;52.414;9.784;2023-06-22T05:42:54;22.30;99.90
6252;DHT22;3159;52.414;9.784;2023-06-22T05:45:20;22.40;99.90
6252;DHT22;3159;52.414;9.784;2023-06-22T05:47:47;22.50;99.90
6252;DHT22;3159;52.414;9.784;2023-06-22T05:50:14;22.50;99.90
6252;DHT22;3159;52.414;9.784;2023-06-22T05:52:41;22.50;99.90
6252;DHT22;3159;52.414;9.784;2023-06-22T05:55:08;22.70;99.90
6252;DHT22;3159;52.414;9.784;2023-06-22T05:57:35;22.90;99.90
6252;DHT22;3159;52.414;9.784;2023-06-22T06:00:05;22.90;99.90
6252;DHT22;3159;52.414;9.784;2023-06-22T06:02:36;23.00;99.90
6252;DHT22;3159;52.414;9.784;2023-06-22T06:05:09;22.50;99.90
6252;DHT22;3159;52.414;9.784;2023-06-22T06:07:36;22.70;99.90
6252;DHT22;3159;52.414;9.784;2023-06-22T06:10:04;22.90;99.90
6252;DHT22;3159;52.414;9.784;2023-06-22T06:12:31;23.00;99.90
6252;DHT22;3159;52.414;9.784;2023-06-22T06:14:58;23.20;99.90
6252;DHT22;3159;52.414;9.784;2023-06-22T06:17:26;23.20;99.90
6252;DHT22;3159;52.414;9.784;2023-06-22T06:19:53;23.10;99.90
6252;DHT22;3159;52.414;9.784;2023-06-22T06:22:20;23.10;99.90
6252;DHT22;3159;52.414;9.784;2023-06-22T06:24:49;23.30;99.90
6252;DHT22;3159;52.414;9.784;2023-06-22T06:27:16;23.40;99.90
6252;DHT22;3159;52.414;9.784;2023-06-22T06:29:44;23.40;99.90
6252;DHT22;3159;52.414;9.784;2023-06-22T06:32:14;23.60;99.90
6252;DHT22;3159;52.414;9.784;2023-06-22T06:34:42;23.70;99.90
6252;DHT22;3159;52.414;9.784;2023-06-22T06:37:09;23.70;99.90
6252;DHT22;3159;52.414;9.784;2023-06-22T06:39:36;23.70;99.90
6252;DHT22;3159;52.414;9.784;2023-06-22T06:42:04;23.80;99.90
6252;DHT22;3159;52.414;9.784;2023-06-22T06:44:31;23.90;99.90
6252;DHT22;3159;52.414;9.784;2023-06-22T06:46:58;23.80;99.90
6252;DHT22;3159;52.414;9.784;2023-06-22T06:49:25;23.80;99.90
6252;DHT22;3159;52.414;9.784;2023-06-22T06:51:53;23.70;99.90
6252;DHT22;3159;52.414;9.784;2023-06-22T06:54:21;24.00;99.90
6252;DHT22;3159;52.414;9.784;2023-06-22T06:56:48;23.80;99.90
6252;DHT22;3159;52.414;9.784;2023-06-22T06:59:15;23.90;99.90
6252;DHT22;3159;52.414;9.784;2023-06-22T07:01:42;24.10;99.90
6252;DHT22;3159;52.414;9.784;2023-06-22T07:04:10;24.30;99.90
6252;DHT22;3159;52.414;9.784;2023-06-22T07:06:36;24.50;99.90
6252;DHT22;3159;52.414;9.784;2023-06-22T07:09:05;24.30;99.90
6252;DHT22;3159;52.414;9.784;2023-06-22T07:11:33;24.70;99.90
6252;DHT22;3159;52.414;9.784;2023-06-22T07:14:00;24.30;99.90
6252;DHT22;3159;52.414;9.784;2023-06-22T07:16:27;24.40;99.90
6252;DHT22;3159;52.414;9.784;2023-06-22T07:18:55;24.80;99.90
6252;DHT22;3159;52.414;9.784;2023-06-22T07:21:22;24.40;99.90
6252;DHT22;3159;52.414;9.784;2023-06-22T07:23:49;24.10;99.90
6252;DHT22;3159;52.414;9.784;2023-06-22T07:26:17;24.60;99.90
6252;DHT22;3159;52.414;9.784;2023-06-22T07:28:44;24.70;99.90
6252;DHT22;3159;52.414;9.784;2023-06-22T07:31:11;24.40;99.90
6252;DHT22;3159;52.414;9.784;2023-06-22T07:33:38;24.90;99.90
6252;DHT22;3159;52.414;9.784;2023-06-22T07:36:05;24.70;99.90
6252;DHT22;3159;52.414;9.784;2023-06-22T07:38:33;24.90;99.90
6252;DHT22;3159;52.414;9.784;2023-06-22T07:41:00;24.70;99.90
6252;DHT22;3159;52.414;9.784;2023-06-22T07:43:29;24.80;99.90
6252;DHT22;3159;52.414;9.784;2023-06-22T07:45:58;25.20;99.90
6252;DHT22;3159;52.414;9.784;2023-06-22T07:48:25;25.60;99.90
6252;DHT22;3159;52.414;9.784;2023-06-22T07:50:52;25.60;99.90
6252;DHT22;3159;52.414;9.784;2023-06-22T07:53:19;25.80;99.90
6252;DHT22;3159;52.414;9.784;2023-06-22T07:55:46;26.10;99.90
6252;DHT22;3159;52.414;9.784;2023-06-22T07:58:13;26.50;99.90
6252;DHT22;3159;52.414;9.784;2023-06-22T08:00:42;25.80;99.90
6252;DHT22;3159;52.414;9.784;2023-06-22T08:03:09;26.30;99.90
6252;DHT22;3159;52.414;9.784;2023-06-22T08:05:36;26.50;99.90
6252;DHT22;3159;52.414;9.784;2023-06-22T08:08:03;26.70;99.90
6252;DHT22;3159;52.414;9.784;2023-06-22T08:10:30;26.30;99.90
6252;DHT22;3159;52.414;9.784;2023-06-22T08:12:57;26.40;99.90
6252;DHT22;3159;52.414;9.784;2023-06-22T08:15:26;26.50;99.90
6252;DHT22;3159;52.414;9.784;2023-06-22T08:17:55;26.60;99.90
6252;DHT22;3159;52.414;9.784;2023-06-22T08:20:23;26.40;99.90
6252;DHT22;3159;52.414;9.784;2023-06-22T08:22:50;25.70;99.90
6252;DHT22;3159;52.414;9.784;2023-06-22T08:25:17;25.80;99.90
6252;DHT22;3159;52.414;9.784;2023-06-22T08:27:45;25.70;99.90
6252;DHT22;3159;52.414;9.784;2023-06-22T08:30:14;25.60;99.90
6252;DHT22;3159;52.414;9.784;2023-06-22T08:32:41;25.60;99.90
6252;DHT22;3159;52.414;9.784;2023-06-22T08:35:09;25.40;99.90
6252;DHT22;3159;52.414;9.784;2023-06-22T08:37:37;25.10;99.90
6252;DHT22;3159;52.414;9.784;2023-06-22T08:40:06;25.10;99.90
6252;DHT22;3159;52.414;9.784;2023-06-22T08:42:34;25.40;99.90
6252;DHT22;3159;52.414;9.784;2023-06-22T08:45:01;25.20;99.90
6252;DHT22;3159;52.414;9.784;2023-06-22T08:47:29;25.20;99.90
6252;DHT22;3159;52.414;9.784;2023-06-22T08:49:55;25.20;99.90
6252;DHT22;3159;52.414;9.784;2023-06-22T08:52:24;25.20;99.90
6252;DHT22;3159;52.414;9.784;2023-06-22T08:54:51;24.80;99.90
6252;DHT22;3159;52.414;9.784;2023-06-22T08:57:18;25.00;99.90
6252;DHT22;3159;52.414;9.784;2023-06-22T08:59:46;24.70;99.90
6252;DHT22;3159;52.414;9.784;2023-06-22T09:02:12;24.90;99.90
6252;DHT22;3159;52.414;9.784;2023-06-22T09:04:39;24.90;99.90
6252;DHT22;3159;52.414;9.784;2023-06-22T09:07:07;24.80;99.90
6252;DHT22;3159;52.414;9.784;2023-06-22T09:09:35;24.80;99.90
6252;DHT22;3159;52.414;9.784;2023-06-22T09:12:02;25.20;99.90
6252;DHT22;3159;52.414;9.784;2023-06-22T09:14:29;25.20;99.90
6252;DHT22;3159;52.414;9.784;2023-06-22T09:16:56;25.30;99.90
6252;DHT22;3159;52.414;9.784;2023-06-22T09:19:23;25.10;99.90
6252;DHT22;3159;52.414;9.784;2023-06-22T09:21:50;25.30;99.90
6252;DHT22;3159;52.414;9.784;2023-06-22T09:24:17;25.40;99.90
6252;DHT22;3159;52.414;9.784;2023-06-22T09:26:45;25.20;99.90
6252;DHT22;3159;52.414;9.784;2023-06-22T09:29:12;25.30;99.90
6252;DHT22;3159;52.414;9.784;2023-06-22T09:31:39;25.50;99.90
6252;DHT22;3159;52.414;9.784;2023-06-22T09:34:06;25.60;99.90
6252;DHT22;3159;52.414;9.784;2023-06-22T09:36:33;25.50;99.90
6252;DHT22;3159;52.414;9.784;2023-06-22T09:39:01;25.80;99.90
6252;DHT22;3159;52.414;9.784;2023-06-22T09:41:31;25.60;99.90
6252;DHT22;3159;52.414;9.784;2023-06-22T09:43:59;25.50;99.90
6252;DHT22;3159;52.414;9.784;2023-06-22T09:46:26;25.90;99.90
6252;DHT22;3159;52.414;9.784;2023-06-22T09:48:54;25.80;99.90
6252;DHT22;3159;52.414;9.784;2023-06-22T09:51:21;25.80;99.90
6252;DHT22;3159;52.414;9.784;2023-06-22T09:53:49;25.50;99.90
6252;DHT22;3159;52.414;9.784;2023-06-22T09:56:16;25.50;99.90
6252;DHT22;3159;52.414;9.784;2023-06-22T09:58:44;25.60;99.90
6252;DHT22;3159;52.414;9.784;2023-06-22T10:01:13;25.70;99.90
6252;DHT22;3159;52.414;9.784;2023-06-22T10:03:40;26.10;99.90
6252;DHT22;3159;52.414;9.784;2023-06-22T10:06:08;25.90;99.90
6252;DHT22;3159;52.414;9.784;2023-06-22T10:08:35;26.20;99.90
6252;DHT22;3159;52.414;9.784;2023-06-22T10:13:29;25.60;99.90
6252;DHT22;3159;52.414;9.784;2023-06-22T10:15:56;25.60;99.90
6252;DHT22;3159;52.414;9.784;2023-06-22T10:18:24;25.80;99.90
6252;DHT22;3159;52.414;9.784;2023-06-22T10:20:51;25.80;99.90
6252;DHT22;3159;52.414;9.784;2023-06-22T10:23:18;25.70;99.90
6252;DHT22;3159;52.414;9.784;2023-06-22T10:25:45;26.00;99.90
6252;DHT22;3159;52.414;9.784;2023-06-22T10:28:12;26.10;99.90
6252;DHT22;3159;52.414;9.784;2023-06-22T10:30:39;26.30;99.90
6252;DHT22;3159;52.414;9.784;2023-06-22T10:33:07;26.10;99.90
6252;DHT22;3159;52.414;9.784;2023-06-22T10:35:36;26.20;99.90
6252;DHT22;3159;52.414;9.784;2023-06-22T10:38:04;26.20;99.90
6252;DHT22;3159;52.414;9.784;2023-06-22T10:40:31;26.20;99.90
6252;DHT22;3159;52.414;9.784;2023-06-22T10:42:58;25.90;99.90
6252;DHT22;3159;52.414;9.784;2023-06-22T10:45:25;25.90;99.90
6252;DHT22;3159;52.414;9.784;2023-06-22T10:47:52;25.90;99.90
6252;DHT22;3159;52.414;9.784;2023-06-22T10:50:19;26.40;99.90
6252;DHT22;3159;52.414;9.784;2023-06-22T10:52:48;26.70;99.90
6252;DHT22;3159;52.414;9.784;2023-06-22T10:55:15;26.80;99.90
6252;DHT22;3159;52.414;9.784;2023-06-22T10:57:41;26.90;99.90
6252;DHT22;3159;52.414;9.784;2023-06-22T11:00:10;26.40;99.90
6252;DHT22;3159;52.414;9.784;2023-06-22T11:02:37;26.20;99.90
6252;DHT22;3159;52.414;9.784;2023-06-22T11:05:05;26.30;99.90
6252;DHT22;3159;52.414;9.784;2023-06-22T11:07:32;26.60;99.90
6252;DHT22;3159;52.414;9.784;2023-06-22T11:10:00;26.90;99.90
6252;DHT22;3159;52.414;9.784;2023-06-22T11:12:27;26.60;99.90
6252;DHT22;3159;52.414;9.784;2023-06-22T11:14:54;26.50;99.90
6252;DHT22;3159;52.414;9.784;2023-06-22T11:17:22;26.70;99.90
6252;DHT22;3159;52.414;9.784;2023-06-22T11:19:51;27.10;99.90
6252;DHT22;3159;52.414;9.784;2023-06-22T11:22:18;27.30;99.90
6252;DHT22;3159;52.414;9.784;2023-06-22T11:24:44;27.30;99.90
6252;DHT22;3159;52.414;9.784;2023-06-22T11:27:13;27.50;99.90
6252;DHT22;3159;52.414;9.784;2023-06-22T11:29:39;27.20;99.90
6252;DHT22;3159;52.414;9.784;2023-06-22T11:32:07;27.20;99.90
6252;DHT22;3159;52.414;9.784;2023-06-22T11:34:34;27.10;99.90
6252;DHT22;3159;52.414;9.784;2023-06-22T11:37:01;26.90;99.90
6252;DHT22;3159;52.414;9.784;2023-06-22T11:39:28;27.20;99.90
6252;DHT22;3159;52.414;9.784;2023-06-22T11:41:55;26.60;99.90
6252;DHT22;3159;52.414;9.784;2023-06-22T11:44:23;26.90;99.90
6252;DHT22;3159;52.414;9.784;2023-06-22T11:46:50;27.30;99.90
6252;DHT22;3159;52.414;9.784;2023-06-22T11:49:16;27.00;99.90
6252;DHT22;3159;52.414;9.784;2023-06-22T11:51:43;26.90;99.90
6252;DHT22;3159;52.414;9.784;2023-06-22T11:54:10;27.00;99.90
6252;DHT22;3159;52.414;9.784;2023-06-22T11:56:37;27.40;99.90
6252;DHT22;3159;52.414;9.784;2023-06-22T11:59:04;27.60;99.90
6252;DHT22;3159;52.414;9.784;2023-06-22T12:01:32;28.00;99.90
6252;DHT22;3159;52.414;9.784;2023-06-22T12:03:59;28.60;99.90
6252;DHT22;3159;52.414;9.784;2023-06-22T12:06:26;29.00;99.90
6252;DHT22;3159;52.414;9.784;2023-06-22T12:08:53;29.00;99.90
6252;DHT22;3159;52.414;9.784;2023-06-22T12:11:20;29.00;99.90
6252;DHT22;3159;52.414;9.784;2023-06-22T12:13:47;29.30;99.90
6252;DHT22;3159;52.414;9.784;2023-06-22T12:16:13;29.30;99.90
6252;DHT22;3159;52.414;9.784;2023-06-22T12:18:42;28.60;99.90
6252;DHT22;3159;52.414;9.784;2023-06-22T12:21:09;29.30;99.90
6252;DHT22;3159;52.414;9.784;2023-06-22T12:23:35;28.10;99.90
6252;DHT22;3159;52.414;9.784;2023-06-22T12:26:02;27.80;99.90
6252;DHT22;3159;52.414;9.784;2023-06-22T12:28:29;28.30;99.90
6252;DHT22;3159;52.414;9.784;2023-06-22T12:30:56;28.50;99.90
6252;DHT22;3159;52.414;9.784;2023-06-22T12:33:23;28.20;99.90
6252;DHT22;3159;52.414;9.784;2023-06-22T12:35:51;28.40;99.90
6252;DHT22;3159;52.414;9.784;2023-06-22T12:38:18;28.60;99.90
6252;DHT22;3159;52.414;9.784;2023-06-22T12:40:45;28.70;99.90
6252;DHT22;3159;52.414;9.784;2023-06-22T12:43:12;28.70;99.90
6252;DHT22;3159;52.414;9.784;2023-06-22T12:45:39;28.70;99.90
6252;DHT22;3159;52.414;9.784;2023-06-22T12:48:06;28.40;99.90
6252;DHT22;3159;52.414;9.784;2023-06-22T12:50:34;28.40;99.90
6252;DHT22;3159;52.414;9.784;2023-06-22T12:53:02;28.80;99.90
6252;DHT22;3159;52.414;9.784;2023-06-22T12:55:29;28.60;99.90
6252;DHT22;3159;52.414;9.784;2023-06-22T12:57:56;28.70;99.90
6252;DHT22;3159;52.414;9.784;2023-06-22T13:00:23;28.50;99.90
6252;DHT22;3159;52.414;9.784;2023-06-22T13:02:50;28.80;99.90
6252;DHT22;3159;52.414;9.784;2023-06-22T13:05:17;28.80;99.90
6252;DHT22;3159;52.414;9.784;2023-06-22T13:07:44;28.40;99.90
6252;DHT22;3159;52.414;9.784;2023-06-22T13:10:12;28.20;99.90
6252;DHT22;3159;52.414;9.784;2023-06-22T13:12:39;28.40;99.90
6252;DHT22;3159;52.414;9.784;2023-06-22T13:15:07;28.60;99.90
6252;DHT22;3159;52.414;9.784;2023-06-22T13:17:34;28.50;99.90
6252;DHT22;3159;52.414;9.784;2023-06-22T13:20:00;28.30;99.90
6252;DHT22;3159;52.414;9.784;2023-06-22T13:22:30;28.30;99.90
6252;DHT22;3159;52.414;9.784;2023-06-22T13:24:58;28.20;99.90
6252;DHT22;3159;52.414;9.784;2023-06-22T13:27:26;27.90;99.90
6252;DHT22;3159;52.414;9.784;2023-06-22T13:29:53;27.90;99.90
6252;DHT22;3159;52.414;9.784;2023-06-22T13:32:20;28.00;99.90
6252;DHT22;3159;52.414;9.784;2023-06-22T13:34:47;28.10;99.90
6252;DHT22;3159;52.414;9.784;2023-06-22T13:37:14;27.70;99.90
6252;DHT22;3159;52.414;9.784;2023-06-22T13:39:41;28.00;99.90
6252;DHT22;3159;52.414;9.784;2023-06-22T13:42:08;27.80;99.90
6252;DHT22;3159;52.414;9.784;2023-06-22T13:44:36;27.60;99.90
6252;DHT22;3159;52.414;9.784;2023-06-22T13:47:03;27.80;99.90
6252;DHT22;3159;52.414;9.784;2023-06-22T13:49:31;28.00;99.90
6252;DHT22;3159;52.414;9.784;2023-06-22T13:51:58;28.10;99.90
6252;DHT22;3159;52.414;9.784;2023-06-22T13:54:25;27.60;99.90
6252;DHT22;3159;52.414;9.784;2023-06-22T13:56:52;27.60;99.90
6252;DHT22;3159;52.414;9.784;2023-06-22T13:59:18;27.60;99.90
6252;DHT22;3159;52.414;9.784;2023-06-22T14:01:47;27.80;99.90
6252;DHT22;3159;52.414;9.784;2023-06-22T14:04:14;27.60;99.90
6252;DHT22;3159;52.414;9.784;2023-06-22T14:06:41;27.60;99.90
6252;DHT22;3159;52.414;9.784;2023-06-22T14:09:08;27.70;99.90
6252;DHT22;3159;52.414;9.784;2023-06-22T14:11:35;27.70;99.90
6252;DHT22;3159;52.414;9.784;2023-06-22T14:14:02;27.50;99.90
6252;DHT22;3159;52.414;9.784;2023-06-22T14:16:28;27.20;99.90
6252;DHT22;3159;52.414;9.784;2023-06-22T14:18:57;27.00;99.90
6252;DHT22;3159;52.414;9.784;2023-06-22T14:21:23;26.80;99.90
6252;DHT22;3159;52.414;9.784;2023-06-22T14:23:50;26.80;99.90
6252;DHT22;3159;52.414;9.784;2023-06-22T14:26:17;26.80;99.90
6252;DHT22;3159;52.414;9.784;2023-06-22T14:28:45;26.60;99.90
6252;DHT22;3159;52.414;9.784;2023-06-22T14:31:14;26.60;99.90
6252;DHT22;3159;52.414;9.784;2023-06-22T14:33:47;26.50;99.90
6252;DHT22;3159;52.414;9.784;2023-06-22T14:36:16;26.70;99.90
6252;DHT22;3159;52.414;9.784;2023-06-22T14:38:43;26.50;99.90
6252;DHT22;3159;52.414;9.784;2023-06-22T14:41:11;26.70;99.90
6252;DHT22;3159;52.414;9.784;2023-06-22T14:43:44;26.80;99.90
6252;DHT22;3159;52.414;9.784;2023-06-22T14:46:11;26.70;99.90
6252;DHT22;3159;52.414;9.784;2023-06-22T14:48:38;26.80;99.90
6252;DHT22;3159;52.414;9.784;2023-06-22T14:51:05;26.60;99.90
6252;DHT22;3159;52.414;9.784;2023-06-22T14:53:33;26.60;99.90
6252;DHT22;3159;52.414;9.784;2023-06-22T14:56:00;26.50;99.90
6252;DHT22;3159;52.414;9.784;2023-06-22T14:58:27;26.40;99.90
6252;DHT22;3159;52.414;9.784;2023-06-22T15:00:55;26.50;99.90
6252;DHT22;3159;52.414;9.784;2023-06-22T15:03:22;26.40;99.90
6252;DHT22;3159;52.414;9.784;2023-06-22T15:05:53;26.40;99.90
6252;DHT22;3159;52.414;9.784;2023-06-22T15:08:20;26.40;99.90
6252;DHT22;3159;52.414;9.784;2023-06-22T15:10:48;26.30;99.90
6252;DHT22;3159;52.414;9.784;2023-06-22T15:13:16;26.30;99.90
6252;DHT22;3159;52.414;9.784;2023-06-22T15:15:43;26.10;99.90
6252;DHT22;3159;52.414;9.784;2023-06-22T15:18:10;26.00;99.90
6252;DHT22;3159;52.414;9.784;2023-06-22T15:20:37;26.00;99.90
6252;DHT22;3159;52.414;9.784;2023-06-22T15:23:05;26.00;99.90
6252;DHT22;3159;52.414;9.784;2023-06-22T15:25:32;25.70;99.90
6252;DHT22;3159;52.414;9.784;2023-06-22T15:28:00;25.80;99.90
6252;DHT22;3159;52.414;9.784;2023-06-22T15:30:28;25.80;99.90
6252;DHT22;3159;52.414;9.784;2023-06-22T15:32:55;25.60;99.90
6252;DHT22;3159;52.414;9.784;2023-06-22T15:35:22;25.70;99.90
6252;DHT22;3159;52.414;9.784;2023-06-22T15:37:49;25.60;99.90
6252;DHT22;3159;52.414;9.784;2023-06-22T15:40:17;25.70;99.90
6252;DHT22;3159;52.414;9.784;2023-06-22T15:42:44;25.70;99.90
6252;DHT22;3159;52.414;9.784;2023-06-22T15:45:14;25.20;99.90
6252;DHT22;3159;52.414;9.784;2023-06-22T15:47:41;24.60;99.90
6252;DHT22;3159;52.414;9.784;2023-06-22T15:50:08;24.50;99.90
6252;DHT22;3159;52.414;9.784;2023-06-22T15:52:35;24.60;99.90
6252;DHT22;3159;52.414;9.784;2023-06-22T15:55:02;24.70;99.90
6252;DHT22;3159;52.414;9.784;2023-06-22T15:57:29;24.60;99.90
6252;DHT22;3159;52.414;9.784;2023-06-22T15:59:56;24.60;99.90
6252;DHT22;3159;52.414;9.784;2023-06-22T16:02:24;24.60;99.90
6252;DHT22;3159;52.414;9.784;2023-06-22T16:04:52;24.70;99.90
6252;DHT22;3159;52.414;9.784;2023-06-22T16:07:19;24.60;99.90
6252;DHT22;3159;52.414;9.784;2023-06-22T16:09:46;24.50;99.90